METAR Formatted Surface Weather Observation
Issued by NWS

Home | Current Version | Previous Version | Text Only | Print | Product List | Glossary On
Versions: 1
499
SAUS41 KPHI 211416
MTRNEL
SPECI KNEL 211415Z 05008KT 6SM BR OVC004 11/09 A2991 RMK AO2
T01060094 PNO $



USA.gov is the U.S. government's official web portal to all federal, state and local government web resources and services.